Latest Coastal Weather Observations for Tewantin

IDQ60701

Issued at 8:12 pm EST Monday 22 April 2019 (issued every 10 minutes, with the page automatically refreshed every 10 minutes)

About coastal observations | Map of coastal stations | Coastal observations for QLD | Marine services | Other Formats
Station Details ID: 040908 Name: TEWANTIN RSL PARK Lat: -26.39 Lon: 153.04 Height: 6.4 m
Data from the previous 72 hours. | See also: Recent months at Tewantin
Date/Time
EST
Wind Sea
Height
m
Swell Vis
km
Cloud Weather Temp
°C
Press
hPa
Rain since
9am
mm
Dir  Spd
kts
Gust
kts
Height
m
Period
s
Dir
22/08:00pm ESE 8 16 - - - - - - - 23.7 1020.8 0.0
22/07:30pm ESE 9 14 - - - - - - - 23.8 1020.6 0.0
22/07:00pm ESE 7 12 - - - - - - - 23.6 1020.2 0.0
22/06:30pm ESE 8 11 - - - - - - - 23.7 1019.9 0.0
22/06:00pm S 5 7 - - - - - - - 22.3 1019.7 0.0
22/05:30pm S 5 7 - - - - - - - 22.4 1019.5 0.0
22/05:00pm S 7 12 - - - - - - - 22.9 1019.2 0.0
22/04:30pm SSE 7 13 - - - - - - - 23.5 1019.0 0.0
22/04:00pm SSE 7 13 - - - - - - - 23.7 1018.9 0.0
22/03:30pm SE 6 11 - - - - - - - 23.3 1018.9 0.0
22/03:00pm SSE 9 14 - - - - - - - 24.2 1018.8 0.0
22/02:30pm SE 10 16 - - - - - - - 23.3 1019.0 0.0
22/02:00pm SE 10 17 - - - - - - - 24.2 1018.7 0.0
22/01:30pm SE 9 17 - - - - - - - 25.4 1018.9 0.0
22/01:00pm ESE 12 17 - - - - - - - 25.0 1019.0 0.0
22/12:30pm SE 11 18 - - - - - - - 24.7 1019.2 0.0
22/12:00pm SE 11 17 - - - - - - - 24.6 1019.5 0.0
22/11:30am SE 11 17 - - - - - - - 24.9 1019.7 0.0
22/11:00am SE 9 15 - - - - - - - 24.6 - 0.0
22/10:30am SE 9 16 - - - - - - - 25.1 1020.4 0.0
22/10:00am SE 11 19 - - - - - - - 24.5 1020.6 0.0
22/09:30am SE 11 18 - - - - - - - 24.5 1020.6 0.0
22/09:00am ESE 11 19 - - - - - - - 24.0 1020.6 3.0
22/08:30am SE 9 15 - - - - - - - 24.2 1020.3 3.0
22/08:00am ESE 8 14 - - - - - - - 24.1 1019.9 3.0
22/07:30am ESE 8 14 - - - - - - - 23.7 1019.6 3.0
22/07:00am SE 6 9 - - - - - - - 23.2 1019.3 3.0
22/06:30am SE 6 10 - - - - - - - 22.8 1019.4 3.0
22/06:00am SE 9 13 - - - - - - - 22.8 1019.0 3.0
22/05:30am ESE 8 13 - - - - - - - 22.7 1018.7 3.0
22/05:00am SE 7 12 - - - - - - - 22.8 1018.5 3.0
22/04:30am ESE 7 11 - - - - - - - 22.9 1018.6 3.0
22/04:00am ESE 8 11 - - - - - - - 23.0 1018.4 3.0
22/03:30am ESE 8 13 - - - - - - - 23.0 1018.2 3.0
22/03:00am ESE 8 14 - - - - - - - 22.9 1018.3 3.0
22/02:30am SE 6 14 - - - - - - - 22.6 1018.6 3.0
22/02:00am SSE 5 8 - - - - - - - 22.0 1019.1 3.0
22/01:30am SSE 7 13 - - - - - - - 22.7 1019.6 3.0
22/01:00am SSE 6 13 - - - - - - - 22.9 1019.8 3.0
22/12:30am SE 7 12 - - - - - - - 22.7 1020.0 3.0
22/12:00am SE 6 9 - - - - - - - 22.6 1020.0 3.0
 
Date/Time
EST
Wind Sea
Height
m
Swell Vis
km
Cloud Weather Temp
°C
Press
hPa
Rain since
9am
mm
Dir  Spd
kts
Gust
kts
Height
m
Period
s
Dir
21/11:30pm SE 7 13 - - - - - - - 22.7 1020.4 3.0
21/11:00pm S 5 6 - - - - - - - 20.8 1020.5 3.0
21/10:30pm SSW 6 9 - - - - - - - 20.6 1020.8 2.8
21/10:00pm SSW 5 8 - - - - - - - 20.9 1020.9 2.8
21/09:30pm SSW 6 9 - - - - - - - 20.8 1020.9 2.4
21/09:00pm S 7 11 - - - - - - Recent precip. 21.4 1020.8 2.4
21/08:30pm SSE 7 11 - - - - - - - 22.1 1020.5 2.2
21/08:00pm SSE 5 7 - - - - - - - 21.7 1020.3 2.2
21/07:30pm S 7 11 - - - - - - - 21.5 1020.1 2.2
21/07:00pm SSE 6 11 - - - - - - - 21.5 1019.8 2.2
21/06:30pm SE 6 10 - - - - - - - 23.2 1019.3 0.0
21/06:00pm SSE 7 11 - - - - - - - 23.1 1019.2 0.0
21/05:30pm SSE 7 13 - - - - - - - 23.0 1019.2 0.0
21/05:00pm SE 7 14 - - - - - - - 23.9 1019.0 0.0
21/04:30pm SE 10 15 - - - - - - - 24.0 1018.9 0.0
21/04:00pm ESE 10 15 - - - - - - - 24.1 1018.9 0.0
21/03:30pm SE 10 16 - - - - - - - 24.5 1018.9 0.0
21/03:00pm ESE 12 18 - - - - - - - 24.8 1018.9 0.0
21/02:30pm ESE 12 18 - - - - - - - 24.9 1019.0 0.0
21/02:00pm SE 12 23 - - - - - - - 25.5 1019.1 0.0
21/01:30pm ESE 12 18 - - - - - - - 25.1 1019.3 0.0
21/01:00pm ESE 13 20 - - - - - - - 25.2 1019.4 0.0
21/12:30pm SE 10 17 - - - - - - - 25.0 1019.5 0.0
21/12:00pm SE 11 18 - - - - - - - 25.0 1019.6 0.0
21/11:30am SE 9 15 - - - - - - - 25.4 1019.9 0.0
21/11:00am SE 9 19 - - - - - - - 25.0 1020.3 0.0
21/10:30am SE 10 18 - - - - - - - 25.2 1020.5 0.0
21/10:00am ESE 13 20 - - - - - - - 25.1 1020.8 0.0
21/09:30am SE 9 16 - - - - - - - 24.4 1020.8 0.0
21/09:00am S 7 10 - - - - - - Recent precip. 24.0 1020.9 9.8
21/08:30am SE 9 18 - - - - - - - 23.6 1020.9 9.2
21/08:00am SE 7 10 - - - - - - - 23.9 1020.7 9.2
21/07:30am SE 6 11 - - - - - - - 23.5 1020.6 9.2
21/07:00am SE 7 12 - - - - - - - 23.8 1020.4 9.2
21/06:30am ESE 8 13 - - - - - - - 23.3 1020.3 9.2
21/06:00am ESE 8 13 - - - - - - - 23.4 1019.8 9.2
21/05:30am ESE 8 14 - - - - - - - 23.5 1019.6 9.2
21/05:00am SE 9 15 - - - - - - - 23.4 1019.3 9.2
21/04:30am ESE 8 15 - - - - - - - 23.5 1018.9 9.2
21/04:00am ESE 10 16 - - - - - - - 23.3 1018.5 9.2
21/03:30am ESE 9 15 - - - - - - - 23.3 1018.8 9.2
21/03:00am ESE 10 15 - - - - - - - 23.4 1018.8 9.2
21/02:30am ESE 11 16 - - - - - - - 23.3 1019.0 9.2
21/02:00am ESE 11 18 - - - - - - - 22.9 1019.2 9.2
21/01:30am ESE 10 17 - - - - - - - 23.4 1019.6 8.6
21/01:00am ESE 9 15 - - - - - - - 23.8 1019.6 8.4
21/12:30am ESE 11 18 - - - - - - - 23.3 1019.8 8.4
21/12:00am ESE 10 15 - - - - - - - 23.9 1019.9 8.4
 
Date/Time
EST
Wind Sea
Height
m
Swell Vis
km
Cloud Weather Temp
°C
Press
hPa
Rain since
9am
mm
Dir  Spd
kts
Gust
kts
Height
m
Period
s
Dir
20/11:30pm ESE 7 12 - - - - - - - 23.5 1020.0 8.4
20/11:00pm ESE 9 15 - - - - - - - 23.4 1020.4 8.4
20/10:30pm ESE 10 17 - - - - - - - 23.6 1020.3 8.4
20/10:00pm ESE 9 16 - - - - - - - 23.4 1020.3 8.4
20/09:30pm ESE 9 15 - - - - - - - 23.4 1020.6 8.4
20/09:00pm SE 8 15 - - - - - - - 23.2 1020.5 8.4
20/08:30pm SE 8 12 - - - - - - - 22.6 1020.5 8.4
20/08:00pm SE 9 19 - - - - - - - 22.8 1020.4 8.4
20/07:30pm ESE 8 13 - - - - - - - 22.6 1020.2 8.4
20/07:00pm SSE 7 14 - - - - - - - 22.0 1019.8 6.4
20/06:30pm SE 9 16 - - - - - - - 22.8 1019.3 6.4
20/06:00pm ESE 9 14 - - - - - - Rain 22.1 1019.0 6.2
20/05:30pm ESE 10 16 - - - - - - - 22.2 1018.9 4.0
20/05:00pm ESE 8 13 - - - - - - - 24.0 1018.6 0.6
20/04:30pm SE 6 10 - - - - - - - 23.8 1018.7 0.6
20/04:00pm ESE 7 13 - - - - - - - 23.1 1018.5 0.6
20/03:30pm SE 8 14 - - - - - - - 23.9 1018.3 0.2
20/03:00pm ESE 9 17 - - - - - - - 24.6 1018.3 0.2
20/02:30pm SE 10 16 - - - - - - - 24.9 1018.3 0.2
20/02:00pm SE 10 16 - - - - - - - 25.4 1018.6 0.2
20/01:30pm ESE 10 17 - - - - - - - 25.0 1018.8 0.2
20/01:00pm ESE 12 19 - - - - - - - 25.0 1019.0 0.2
20/12:30pm ESE 9 17 - - - - - - - 25.4 1019.6 0.2
20/12:00pm E 11 16 - - - - - - - 24.9 1020.0 0.2
20/11:30am ESE 9 13 - - - - - - - 25.6 1020.4 0.2
20/11:00am ESE 9 16 - - - - - - - 24.9 1020.8 0.2
20/10:30am ESE 10 17 - - - - - - - 25.3 1021.0 0.2
20/10:00am ESE 10 17 - - - - - - - 25.4 1021.3 0.0
20/09:30am ESE 9 14 - - - - - - - 24.7 1021.4 0.0
20/09:00am ESE 10 15 - - - - - - - 24.3 1021.3 26.6
20/08:30am SSW 5 11 - - - - - - - 23.4 1021.1 26.6
20/08:00am SSE 9 14 - - - - - - - 23.0 1021.1 26.6
20/07:30am SE 9 14 - - - - - - - 24.2 1020.7 26.2
20/07:00am SE 6 11 - - - - - - - 23.6 1020.4 26.2
20/06:30am SE 8 16 - - - - - - - 23.6 1020.0 25.8
20/06:00am SE 9 14 - - - - - - - 23.5 1019.7 25.6
20/05:30am SE 8 16 - - - - - - - 23.7 1019.5 25.6
20/05:00am SE 7 13 - - - - - - - 23.6 1019.6 25.6
20/04:30am SE 9 15 - - - - - - - 23.4 1019.2 25.6
20/04:00am SE 10 19 - - - - - - - 23.3 1019.0 25.6
20/03:30am SE 9 14 - - - - - - - 23.6 1019.0 25.6
20/03:00am ESE 11 18 - - - - - - - 23.7 1019.1 25.6
20/02:30am ESE 10 16 - - - - - - - 23.1 1019.2 25.6
20/02:00am ESE 11 17 - - - - - - - 23.7 1019.3 25.6
20/01:30am ESE 9 15 - - - - - - - 23.5 1019.6 25.6
20/01:00am ESE 8 12 - - - - - - - 23.5 1019.8 25.6
20/12:30am ESE 9 14 - - - - - - - 23.2 1019.9 25.6
20/12:00am SE 6 11 - - - - - - Recent precip. 22.3 1020.4 25.6
 
Date/Time
EST
Wind Sea
Height
m
Swell Vis
km
Cloud Weather Temp
°C
Press
hPa
Rain since
9am
mm
Dir  Spd
kts
Gust
kts
Height
m
Period
s
Dir
19/11:30pm ESE 11 22 - - - - - - - 21.5 1020.8 25.4
19/11:00pm SE 7 16 - - - - - - - 22.7 1021.2 19.6
19/10:30pm ESE 7 12 - - - - - - - 22.9 1021.1 18.8
19/10:00pm ESE 8 12 - - - - - - - 22.8 1021.0 18.8
19/09:30pm ENE 8 15 - - - - - - - 21.5 1021.1 18.8
19/09:00pm ESE 6 10 - - - - - - Recent precip. 22.0 1020.8 17.4
19/08:30pm SSW 5 7 - - - - - - - 21.6 1020.8 16.6

Other formats

Comma delimited format used in spreadsheet applications
http://www.bom.gov.au/fwo/IDQ60701/IDQ60701.94570.axf

JavaScript Object Notation format (JSON) in row-major order
http://www.bom.gov.au/fwo/IDQ60701/IDQ60701.94570.json

Data quality

Most of these data are generated automatically and are frequently updated. Quality checks on data are not normally performed. It is possible for incorrect values to appear. Refer to information at About Latest Weather Observations and please check the disclaimer before using these data.